Time;durP1;ratioP1;P1;durP2;ratioP2;P2;SDS_P1;SDS_P2;PMS_P1;PMS_P2;Temp;Humidity;BMP_temperature;BMP_pressure;BME280_temperature;BME280_humidity;BME280_pressure;Samples;Min_cycle;Max_cycle;Signal;HPM_P1;HPM_P2
2021/09/29 00:00:16;;;;;;;;;;;;;;;;;;1025300;28;1350;-34
2021/09/29 00:00:47;;;;;;;;;;;;;;;;;;1017876;29;1048;-36
2021/09/29 00:01:17;;;;;;;;;;;;;;;;;;1018203;29;1206;-34
2021/09/29 00:01:48;;;;;;;;;;;;;;;;;;1014009;29;1108;-34
2021/09/29 00:02:19;;;;;;;;;;;;;;;;;;1010609;29;1469;-34
2021/09/29 00:02:49;;;;;;;;;;;;;;;;;;1014159;29;1038;-37
2021/09/29 00:03:19;;;;;;;;;;;;;;;;;;1014440;29;1209;-37
2021/09/29 00:03:50;;;;;;;;;;;;;;;;;;1026736;28;1428;-34
2021/09/29 00:04:20;;;;;;;;;;;;;;;;;;1025756;28;1330;-33
2021/09/29 00:04:51;;;;;;;;;;;;;;;;;;1026058;28;1187;-29
2021/09/29 00:05:21;;;;;;;;;;;;;;;;;;1025997;28;1031;-34
2021/09/29 00:05:52;;;;;;;;;;;;;;;;;;1026008;28;1033;-32
2021/09/29 00:06:22;;;;;;;;;;;;;;;;;;1023060;28;771;-36
2021/09/29 00:06:52;;;;;;;;;;;;;;;;;;1022580;29;914;-34
2021/09/29 00:07:23;;;;;;;;;;;;;;;;;;1022934;29;946;-33
2021/09/29 00:07:53;;;;;;;;;;;;;;;;;;1022604;29;1466;-37
2021/09/29 00:08:23;;;;;;;;;;;;;;;;;;1022622;29;1003;-33
2021/09/29 00:08:54;;;;;;;;;;;;;;;;;;1022549;29;1339;-36
2021/09/29 00:09:24;;;;;;;;;;;;;;;;;;1022899;29;998;-35
2021/09/29 00:09:54;;;;;;;;;;;;;;;;;;1022602;29;927;-34
2021/09/29 00:10:25;;;;;;;;;;;;;;;;;;1026159;28;1016;-33
2021/09/29 00:10:56;;;;;;;;;;;;;;;;;;1021948;28;1131;-36
2021/09/29 00:11:27;;;;;;;;;;;;;;;;;;1018091;29;1177;-33
2021/09/29 00:11:58;;;;;;;;;;;;;;;;;;1018162;29;861;-33
2021/09/29 00:12:28;;;;;;;;;;;;;;;;;;1017987;29;1088;-35
2021/09/29 00:12:59;;;;;;;;;;;;;;;;;;1022053;29;1902;-37
2021/09/29 00:13:30;;;;;;;;;;;;;;;;;;1022647;29;975;-37
2021/09/29 00:14:00;;;;;;;;;;;;;;;;;;1022713;28;1258;-32
2021/09/29 00:14:31;;;;;;;;;;;;;;;;;;1022771;29;863;-36
2021/09/29 00:15:03;;;;;;;;;;;;;;;;;;1022703;29;906;-36
2021/09/29 00:15:33;;;;;;;;;;;;;;;;;;1022646;28;980;-34
2021/09/29 00:16:04;;;;;;;;;;;;;;;;;;1022935;28;913;-33
2021/09/29 00:16:34;;;;;;;;;;;;;;;;;;1022694;28;996;-36
2021/09/29 00:17:05;;;;;;;;;;;;;;;;;;1022561;29;1266;-36
2021/09/29 00:17:35;;;;;;;;;;;;;;;;;;1022660;28;957;-34
2021/09/29 00:18:06;;;;;;;;;;;;;;;;;;1022846;28;1248;-35
2021/09/29 00:18:36;;;;;;;;;;;;;;;;;;1022608;29;988;-33
2021/09/29 00:19:07;;;;;;;;;;;;;;;;;;1022953;28;905;-35
2021/09/29 00:19:37;;;;;;;;;;;;;;;;;;1022637;29;928;-36
2021/09/29 00:20:10;;;;;;;;;;;;;;;;;;1021729;29;1361;-36
2021/09/29 00:20:41;;;;;;;;;;;;;;;;;;1013898;29;1179;-35
2021/09/29 00:21:11;;;;;;;;;;;;;;;;;;1013898;29;1398;-35
2021/09/29 00:21:42;;;;;;;;;;;;;;;;;;1010678;29;1101;-37
2021/09/29 00:22:12;;;;;;;;;;;;;;;;;;1018242;29;1003;-35
2021/09/29 00:22:43;;;;;;;;;;;;;;;;;;1021660;29;1391;-36
2021/09/29 00:23:13;;;;;;;;;;;;;;;;;;1021976;29;2369;-37
2021/09/29 00:23:44;;;;;;;;;;;;;;;;;;1026605;28;1060;-36
2021/09/29 00:24:14;;;;;;;;;;;;;;;;;;1026534;28;827;-35
2021/09/29 00:24:44;;;;;;;;;;;;;;;;;;1030432;28;1562;-37
2021/09/29 00:25:16;;;;;;;;;;;;;;;;;;1030694;28;971;-33
2021/09/29 00:25:46;;;;;;;;;;;;;;;;;;1026012;28;1168;-34
2021/09/29 00:26:17;;;;;;;;;;;;;;;;;;1026097;28;1082;-33
2021/09/29 00:26:47;;;;;;;;;;;;;;;;;;1026035;28;1017;-37
2021/09/29 00:27:18;;;;;;;;;;;;;;;;;;1022169;29;1131;-35
2021/09/29 00:27:48;;;;;;;;;;;;;;;;;;1025717;28;1143;-37
2021/09/29 00:28:19;;;;;;;;;;;;;;;;;;1025880;28;1503;-37
2021/09/29 00:28:49;;;;;;;;;;;;;;;;;;1026106;28;1047;-34
2021/09/29 00:29:19;;;;;;;;;;;;;;;;;;1030049;28;1374;-34
2021/09/29 00:29:51;;;;;;;;;;;;;;;;;;1030704;28;1010;-36
2021/09/29 00:30:22;;;;;;;;;;;;;;;;;;1026774;28;1277;-35
2021/09/29 00:31:03;;;;;;;;;;;;;;;;;;1025872;28;1028;-37
2021/09/29 00:31:36;;;;;;;;;;;;;;;;;;1025947;28;856;-36
2021/09/29 00:32:07;;;;;;;;;;;;;;;;;;1025916;28;1427;-33
2021/09/29 00:32:40;;;;;;;;;;;;;;;;;;1027746;28;1914;-36
2021/09/29 00:33:14;;;;;;;;;;;;;;;;;;1029527;28;1263;-34
2021/09/29 00:33:47;;;;;;;;;;;;;;;;;;1026541;28;1040;-34
2021/09/29 00:34:33;;;;;;;;;;;;;;;;;;1026417;28;1289;-33
2021/09/29 00:35:04;;;;;;;;;;;;;;;;;;1026698;28;1024;-37
2021/09/29 00:35:35;;;;;;;;;;;;;;;;;;1025833;28;1012;-34
2021/09/29 00:36:05;;;;;;;;;;;;;;;;;;1021955;29;3510;-34
2021/09/29 00:36:37;;;;;;;;;;;;;;;;;;1022039;29;1069;-37
2021/09/29 00:37:08;;;;;;;;;;;;;;;;;;1017782;29;1451;-37
2021/09/29 00:37:39;;;;;;;;;;;;;;;;;;1022265;28;946;-36
2021/09/29 00:38:09;;;;;;;;;;;;;;;;;;1025855;28;1287;-37
2021/09/29 00:38:39;;;;;;;;;;;;;;;;;;1023041;28;3706;-37
2021/09/29 00:39:11;;;;;;;;;;;;;;;;;;1022900;28;1285;-34
2021/09/29 00:39:41;;;;;;;;;;;;;;;;;;1022549;28;1162;-37
2021/09/29 00:40:12;;;;;;;;;;;;;;;;;;1025474;28;1437;-36
2021/09/29 00:40:42;;;;;;;;;;;;;;;;;;1026679;28;890;-36
2021/09/29 00:41:12;;;;;;;;;;;;;;;;;;1026538;28;918;-35
2021/09/29 00:41:45;;;;;;;;;;;;;;;;;;1026958;28;981;-35
2021/09/29 00:42:15;;;;;;;;;;;;;;;;;;1026326;28;2655;-36
2021/09/29 00:42:46;;;;;;;;;;;;;;;;;;1026690;28;850;-35
2021/09/29 00:43:16;;;;;;;;;;;;;;;;;;1026672;28;1144;-34
2021/09/29 00:43:46;;;;;;;;;;;;;;;;;;1026219;28;1426;-31
2021/09/29 00:44:17;;;;;;;;;;;;;;;;;;1026595;28;1016;-33
2021/09/29 00:44:47;;;;;;;;;;;;;;;;;;1026521;28;1322;-33
2021/09/29 00:45:18;;;;;;;;;;;;;;;;;;1026619;28;875;-34
2021/09/29 00:45:48;;;;;;;;;;;;;;;;;;1026850;28;1142;-34
2021/09/29 00:46:19;;;;;;;;;;;;;;;;;;1029542;28;1444;-34
2021/09/29 00:46:49;;;;;;;;;;;;;;;;;;1029835;28;1063;-33
2021/09/29 00:47:19;;;;;;;;;;;;;;;;;;1030049;28;986;-35
2021/09/29 00:47:50;;;;;;;;;;;;;;;;;;1029878;28;1282;-34
2021/09/29 00:48:20;;;;;;;;;;;;;;;;;;1026797;28;960;-36
2021/09/29 00:48:51;;;;;;;;;;;;;;;;;;1026661;28;794;-37
2021/09/29 00:49:21;;;;;;;;;;;;;;;;;;1026663;28;831;-34
2021/09/29 00:49:51;;;;;;;;;;;;;;;;;;1026588;28;1548;-37
2021/09/29 00:50:22;;;;;;;;;;;;;;;;;;1026513;28;818;-36
2021/09/29 00:50:52;;;;;;;;;;;;;;;;;;1026526;28;1304;-32
2021/09/29 00:51:23;;;;;;;;;;;;;;;;;;1026736;28;979;-35
2021/09/29 00:51:54;;;;;;;;;;;;;;;;;;1026535;28;1044;-32
2021/09/29 00:52:25;;;;;;;;;;;;;;;;;;1026770;28;993;-34
2021/09/29 00:52:55;;;;;;;;;;;;;;;;;;1026282;28;1934;-37
2021/09/29 00:53:26;;;;;;;;;;;;;;;;;;1026626;28;1023;-36
2021/09/29 00:53:57;;;;;;;;;;;;;;;;;;1026840;28;1376;-35
2021/09/29 00:54:29;;;;;;;;;;;;;;;;;;1029688;28;975;-32
2021/09/29 00:54:59;;;;;;;;;;;;;;;;;;1029967;28;961;-37
2021/09/29 00:55:30;;;;;;;;;;;;;;;;;;1030096;28;965;-35
2021/09/29 00:56:00;;;;;;;;;;;;;;;;;;1029795;28;1021;-34
2021/09/29 00:56:30;;;;;;;;;;;;;;;;;;1026633;28;938;-37
2021/09/29 00:57:01;;;;;;;;;;;;;;;;;;1026609;28;961;-36
2021/09/29 00:57:31;;;;;;;;;;;;;;;;;;1026601;28;958;-35
2021/09/29 00:58:02;;;;;;;;;;;;;;;;;;1026693;28;879;-37
2021/09/29 00:58:32;;;;;;;;;;;;;;;;;;1026551;28;1387;-36
2021/09/29 00:59:03;;;;;;;;;;;;;;;;;;1026823;28;850;-34
2021/09/29 00:59:33;;;;;;;;;;;;;;;;;;1026657;28;973;-37
2021/09/29 01:00:05;;;;;;;;;;;;;;;;;;1026702;28;1283;-36
2021/09/29 01:00:35;;;;;;;;;;;;;;;;;;1026756;28;802;-36
2021/09/29 01:01:05;;;;;;;;;;;;;;;;;;1025954;28;1454;-37
2021/09/29 01:01:36;;;;;;;;;;;;;;;;;;1023858;28;1115;-36
2021/09/29 01:02:06;;;;;;;;;;;;;;;;;;1022696;28;1000;-34
2021/09/29 01:02:37;;;;;;;;;;;;;;;;;;1022590;29;902;-36
2021/09/29 01:03:08;;;;;;;;;;;;;;;;;;1022671;29;1387;-37
2021/09/29 01:03:39;;;;;;;;;;;;;;;;;;1022626;28;1004;-35
2021/09/29 01:04:10;;;;;;;;;;;;;;;;;;1022550;28;959;-37
2021/09/29 01:04:40;;;;;;;;;;;;;;;;;;1022678;29;957;-36
2021/09/29 01:05:10;;;;;;;;;;;;;;;;;;1022778;29;898;-34
2021/09/29 01:05:41;;;;;;;;;;;;;;;;;;1025993;28;1103;-34
2021/09/29 01:06:18;;;;;;;;;;;;;;;;;;1026373;28;891;-31
2021/09/29 01:07:07;;;;;;;;;;;;;;;;;;1026153;28;1103;-34
2021/09/29 01:07:50;;;;;;;;;;;;;;;;;;1022890;28;1572;-32
2021/09/29 01:08:25;;;;;;;;;;;;;;;;;;1022528;29;1204;-33
2021/09/29 01:08:58;;;;;;;;;;;;;;;;;;1022185;29;1061;-36
2021/09/29 01:09:43;;;;;;;;;;;;;;;;;;1021680;29;979;-34
2021/09/29 01:10:21;;;;;;;;;;;;;;;;;;1021908;29;1021;-37
2021/09/29 01:11:06;;;;;;;;;;;;;;;;;;1025102;28;902;-33
2021/09/29 01:11:36;;;;;;;;;;;;;;;;;;1025877;28;1050;-33
2021/09/29 01:12:16;;;;;;;;;;;;;;;;;;1023714;28;931;-34
2021/09/29 01:12:56;;;;;;;;;;;;;;;;;;1022271;29;1903;-34
2021/09/29 01:13:37;;;;;;;;;;;;;;;;;;1022654;28;819;-34
2021/09/29 01:14:07;;;;;;;;;;;;;;;;;;1022488;28;1318;-35
2021/09/29 01:14:45;;;;;;;;;;;;;;;;;;1022633;28;961;-35
2021/09/29 01:15:19;;;;;;;;;;;;;;;;;;1022828;28;932;-37
2021/09/29 01:15:51;;;;;;;;;;;;;;;;;;1021673;29;1443;-34
2021/09/29 01:16:23;;;;;;;;;;;;;;;;;;1014246;29;949;-37
2021/09/29 01:16:57;;;;;;;;;;;;;;;;;;1013578;29;1471;-37
2021/09/29 01:17:28;;;;;;;;;;;;;;;;;;1006005;29;1026;-35
2021/09/29 01:18:01;;;;;;;;;;;;;;;;;;1010452;29;1352;-36
2021/09/29 01:18:33;;;;;;;;;;;;;;;;;;1013922;29;1138;-36
2021/09/29 01:19:11;;;;;;;;;;;;;;;;;;1016615;28;940;-37
2021/09/29 01:20:00;;;;;;;;;;;;;;;;;;1024495;28;1536;-37
2021/09/29 01:20:41;;;;;;;;;;;;;;;;;;1022309;29;1067;-36
2021/09/29 01:21:12;;;;;;;;;;;;;;;;;;1023411;28;1297;-37
2021/09/29 01:21:50;;;;;;;;;;;;;;;;;;1026384;28;1223;-37
2021/09/29 01:22:39;;;;;;;;;;;;;;;;;;1026828;28;782;-38
2021/09/29 01:23:09;;;;;;;;;;;;;;;;;;1026626;28;934;-32
2021/09/29 01:23:48;;;;;;;;;;;;;;;;;;1022744;28;2512;-37
2021/09/29 01:24:24;;;;;;;;;;;;;;;;;;1026598;28;1414;-35
2021/09/29 01:24:59;;;;;;;;;;;;;;;;;;1033778;28;909;-35
2021/09/29 01:25:48;;;;;;;;;;;;;;;;;;1033931;28;1042;-34
2021/09/29 01:26:25;;;;;;;;;;;;;;;;;;1029258;28;1383;-35
2021/09/29 01:26:57;;;;;;;;;;;;;;;;;;1026566;28;1039;-36
2021/09/29 01:27:29;;;;;;;;;;;;;;;;;;1026578;28;854;-36
2021/09/29 01:28:00;;;;;;;;;;;;;;;;;;1026670;28;1111;-35
2021/09/29 01:28:32;;;;;;;;;;;;;;;;;;1026440;28;930;-32
2021/09/29 01:29:04;;;;;;;;;;;;;;;;;;1026251;28;1396;-35
2021/09/29 01:29:36;;;;;;;;;;;;;;;;;;1026133;28;971;-37
2021/09/29 01:30:07;;;;;;;;;;;;;;;;;;1026639;28;1033;-37
2021/09/29 01:30:38;;;;;;;;;;;;;;;;;;1025368;28;1130;-32
2021/09/29 01:31:09;;;;;;;;;;;;;;;;;;1021944;29;1041;-37
2021/09/29 01:31:40;;;;;;;;;;;;;;;;;;1021812;29;1061;-35
2021/09/29 01:32:11;;;;;;;;;;;;;;;;;;1021858;29;922;-34
2021/09/29 01:32:42;;;;;;;;;;;;;;;;;;1021953;28;1910;-37
2021/09/29 01:33:13;;;;;;;;;;;;;;;;;;1025813;28;1044;-35
2021/09/29 01:33:44;;;;;;;;;;;;;;;;;;1026543;28;902;-36
2021/09/29 01:34:15;;;;;;;;;;;;;;;;;;1026663;28;909;-40
2021/09/29 01:34:47;;;;;;;;;;;;;;;;;;1026370;28;918;-34
2021/09/29 01:35:17;;;;;;;;;;;;;;;;;;1026829;28;905;-30
2021/09/29 01:35:47;;;;;;;;;;;;;;;;;;1026433;28;991;-32
2021/09/29 01:36:19;;;;;;;;;;;;;;;;;;1026803;28;3560;-37
2021/09/29 01:36:49;;;;;;;;;;;;;;;;;;1026488;28;1060;-38
2021/09/29 01:37:20;;;;;;;;;;;;;;;;;;1027374;28;1074;-37
2021/09/29 01:37:50;;;;;;;;;;;;;;;;;;1027370;28;862;-34
2021/09/29 01:38:22;;;;;;;;;;;;;;;;;;1021763;29;3398;-35
2021/09/29 01:38:56;;;;;;;;;;;;;;;;;;1022311;29;1512;-35
2021/09/29 01:39:28;;;;;;;;;;;;;;;;;;1022701;29;840;-33
2021/09/29 01:39:58;;;;;;;;;;;;;;;;;;1015880;29;1392;-31
2021/09/29 01:40:36;;;;;;;;;;;;;;;;;;1014697;29;1123;-36
2021/09/29 01:41:07;;;;;;;;;;;;;;;;;;1010102;29;1490;-38
2021/09/29 01:41:39;;;;;;;;;;;;;;;;;;1013192;29;1073;-33
2021/09/29 01:42:09;;;;;;;;;;;;;;;;;;1018941;29;1292;-31
2021/09/29 01:42:40;;;;;;;;;;;;;;;;;;1022555;28;1390;-31
2021/09/29 01:43:11;;;;;;;;;;;;;;;;;;1026662;28;960;-34
2021/09/29 01:43:41;;;;;;;;;;;;;;;;;;1021580;29;1389;-36
2021/09/29 01:44:13;;;;;;;;;;;;;;;;;;1022339;28;1025;-35
2021/09/29 01:44:44;;;;;;;;;;;;;;;;;;1026609;28;1065;-34
2021/09/29 01:45:14;;;;;;;;;;;;;;;;;;1026152;28;1275;-36
2021/09/29 01:45:46;;;;;;;;;;;;;;;;;;1027286;28;937;-36
2021/09/29 01:46:16;;;;;;;;;;;;;;;;;;1022595;29;1106;-37
2021/09/29 01:46:46;;;;;;;;;;;;;;;;;;1022576;29;938;-36
2021/09/29 01:47:17;;;;;;;;;;;;;;;;;;1022680;29;1148;-35
2021/09/29 01:47:48;;;;;;;;;;;;;;;;;;1022409;29;1018;-33
2021/09/29 01:48:18;;;;;;;;;;;;;;;;;;1027408;28;954;-34
2021/09/29 01:48:59;;;;;;;;;;;;;;;;;;1027162;28;1003;-33
2021/09/29 01:49:38;;;;;;;;;;;;;;;;;;1027067;28;1002;-32
2021/09/29 01:50:09;;;;;;;;;;;;;;;;;;1027371;28;1002;-34
2021/09/29 01:50:41;;;;;;;;;;;;;;;;;;1022155;29;1260;-36
2021/09/29 01:51:11;;;;;;;;;;;;;;;;;;1022754;29;1110;-34
2021/09/29 01:51:47;;;;;;;;;;;;;;;;;;1022608;29;1093;-36
2021/09/29 01:52:21;;;;;;;;;;;;;;;;;;1023564;28;1213;-36
2021/09/29 01:52:52;;;;;;;;;;;;;;;;;;1027200;28;1977;-35
2021/09/29 01:53:24;;;;;;;;;;;;;;;;;;1027313;28;970;-34
2021/09/29 01:53:56;;;;;;;;;;;;;;;;;;1022480;29;1288;-33
2021/09/29 01:54:28;;;;;;;;;;;;;;;;;;1021428;29;1452;-37
2021/09/29 01:54:59;;;;;;;;;;;;;;;;;;1018574;29;1179;-34
2021/09/29 01:55:30;;;;;;;;;;;;;;;;;;1019082;29;1013;-33
2021/09/29 01:56:01;;;;;;;;;;;;;;;;;;1026189;28;1604;-33
2021/09/29 01:56:31;;;;;;;;;;;;;;;;;;1026524;28;977;-35
2021/09/29 01:57:02;;;;;;;;;;;;;;;;;;1026652;28;1043;-36
2021/09/29 01:57:34;;;;;;;;;;;;;;;;;;1026270;28;1200;-36
2021/09/29 01:58:05;;;;;;;;;;;;;;;;;;1023295;28;902;-35
2021/09/29 01:58:36;;;;;;;;;;;;;;;;;;1023211;28;1190;-37
2021/09/29 01:59:06;;;;;;;;;;;;;;;;;;1023059;29;1130;-37
2021/09/29 01:59:37;;;;;;;;;;;;;;;;;;1026314;28;1131;-34
2021/09/29 02:00:09;;;;;;;;;;;;;;;;;;1026386;28;1399;-36
2021/09/29 02:00:42;;;;;;;;;;;;;;;;;;1026580;28;1419;-34
2021/09/29 02:01:13;;;;;;;;;;;;;;;;;;1026112;28;963;-33
2021/09/29 02:01:43;;;;;;;;;;;;;;;;;;1023367;29;847;-35
2021/09/29 02:02:14;;;;;;;;;;;;;;;;;;1023348;28;849;-34
2021/09/29 02:02:45;;;;;;;;;;;;;;;;;;1023189;28;804;-37
2021/09/29 02:03:20;;;;;;;;;;;;;;;;;;1022725;29;981;-34
2021/09/29 02:03:51;;;;;;;;;;;;;;;;;;1018470;29;1057;-34
2021/09/29 02:04:21;;;;;;;;;;;;;;;;;;1014419;29;994;-37
2021/09/29 02:04:52;;;;;;;;;;;;;;;;;;1011276;29;978;-36
2021/09/29 02:05:33;;;;;;;;;;;;;;;;;;1014483;29;1386;-34
2021/09/29 02:06:03;;;;;;;;;;;;;;;;;;1017863;29;1124;-34
2021/09/29 02:07:03;;;;;;;;;;;;;;;;;;1022845;29;1211;-32
2021/09/29 02:07:33;;;;;;;;;;;;;;;;;;1014728;29;1334;-32
2021/09/29 02:08:06;;;;;;;;;;;;;;;;;;1022615;28;1212;-32
2021/09/29 02:08:37;;;;;;;;;;;;;;;;;;1023147;28;1104;-33
2021/09/29 02:09:07;;;;;;;;;;;;;;;;;;1023068;28;1266;-34
2021/09/29 02:09:38;;;;;;;;;;;;;;;;;;1023028;29;1099;-37
2021/09/29 02:10:09;;;;;;;;;;;;;;;;;;1018540;29;1027;-36
2021/09/29 02:10:39;;;;;;;;;;;;;;;;;;1018173;29;1347;-36
2021/09/29 02:11:10;;;;;;;;;;;;;;;;;;1018558;29;1043;-36
2021/09/29 02:11:40;;;;;;;;;;;;;;;;;;1018654;29;1252;-35
2021/09/29 02:12:12;;;;;;;;;;;;;;;;;;1023204;28;1009;-35
2021/09/29 02:12:42;;;;;;;;;;;;;;;;;;1030501;28;1971;-34
2021/09/29 02:13:12;;;;;;;;;;;;;;;;;;1030647;28;1820;-36
2021/09/29 02:13:43;;;;;;;;;;;;;;;;;;1030680;28;1225;-36
2021/09/29 02:14:14;;;;;;;;;;;;;;;;;;1030765;28;1088;-34
2021/09/29 02:14:44;;;;;;;;;;;;;;;;;;1023082;28;1262;-35
2021/09/29 02:15:15;;;;;;;;;;;;;;;;;;1023229;29;1095;-34
2021/09/29 02:15:45;;;;;;;;;;;;;;;;;;1023203;28;779;-36
2021/09/29 02:16:15;;;;;;;;;;;;;;;;;;1023462;28;1041;-34
2021/09/29 02:16:47;;;;;;;;;;;;;;;;;;1027081;28;875;-33
2021/09/29 02:17:18;;;;;;;;;;;;;;;;;;1027495;28;818;-35
2021/09/29 02:17:49;;;;;;;;;;;;;;;;;;1026295;28;984;-37
2021/09/29 02:18:19;;;;;;;;;;;;;;;;;;1026582;28;1100;-34
2021/09/29 02:18:50;;;;;;;;;;;;;;;;;;1026240;28;941;-35
2021/09/29 02:19:21;;;;;;;;;;;;;;;;;;1026807;28;996;-35
2021/09/29 02:19:51;;;;;;;;;;;;;;;;;;1026172;28;2667;-30
2021/09/29 02:20:21;;;;;;;;;;;;;;;;;;1027384;28;1004;-35
2021/09/29 02:20:52;;;;;;;;;;;;;;;;;;1027069;28;1005;-35
2021/09/29 02:21:23;;;;;;;;;;;;;;;;;;1027162;28;1376;-33
2021/09/29 02:21:54;;;;;;;;;;;;;;;;;;1027131;28;1112;-33
2021/09/29 02:22:24;;;;;;;;;;;;;;;;;;1027128;28;1254;-36
2021/09/29 02:22:55;;;;;;;;;;;;;;;;;;1027114;28;873;-33
2021/09/29 02:23:25;;;;;;;;;;;;;;;;;;1027193;28;1100;-33
2021/09/29 02:23:55;;;;;;;;;;;;;;;;;;1027257;28;949;-34
2021/09/29 02:24:26;;;;;;;;;;;;;;;;;;1028343;28;1251;-38
2021/09/29 02:24:56;;;;;;;;;;;;;;;;;;1031277;28;1142;-37
2021/09/29 02:25:26;;;;;;;;;;;;;;;;;;1031099;28;878;-35
2021/09/29 02:25:57;;;;;;;;;;;;;;;;;;1031116;28;1376;-35
2021/09/29 02:26:28;;;;;;;;;;;;;;;;;;1031126;28;846;-36
2021/09/29 02:26:58;;;;;;;;;;;;;;;;;;1030601;28;1076;-34
2021/09/29 02:27:28;;;;;;;;;;;;;;;;;;1026330;28;919;-36
2021/09/29 02:27:59;;;;;;;;;;;;;;;;;;1026290;28;1050;-35
2021/09/29 02:28:29;;;;;;;;;;;;;;;;;;1026578;28;1079;-33
2021/09/29 02:29:00;;;;;;;;;;;;;;;;;;1026263;28;1502;-34
2021/09/29 02:29:30;;;;;;;;;;;;;;;;;;1030287;28;1238;-38
2021/09/29 02:30:01;;;;;;;;;;;;;;;;;;1031408;28;893;-33
2021/09/29 02:30:31;;;;;;;;;;;;;;;;;;1030588;28;1042;-35
2021/09/29 02:31:02;;;;;;;;;;;;;;;;;;1030390;28;1408;-33
2021/09/29 02:31:33;;;;;;;;;;;;;;;;;;1030392;28;1298;-34
2021/09/29 02:32:03;;;;;;;;;;;;;;;;;;1030478;28;1131;-37
2021/09/29 02:32:34;;;;;;;;;;;;;;;;;;1030522;28;997;-35
2021/09/29 02:33:05;;;;;;;;;;;;;;;;;;1030887;28;1918;-34
2021/09/29 02:33:35;;;;;;;;;;;;;;;;;;1031084;28;1032;-34
2021/09/29 02:34:07;;;;;;;;;;;;;;;;;;1031210;28;1072;-35
2021/09/29 02:34:37;;;;;;;;;;;;;;;;;;1030926;28;1042;-33
2021/09/29 02:35:08;;;;;;;;;;;;;;;;;;1031239;28;941;-37
2021/09/29 02:35:38;;;;;;;;;;;;;;;;;;1031051;28;925;-34
2021/09/29 02:36:09;;;;;;;;;;;;;;;;;;1028861;28;3638;-35
2021/09/29 02:36:39;;;;;;;;;;;;;;;;;;1027203;28;1061;-34
2021/09/29 02:37:10;;;;;;;;;;;;;;;;;;1027049;28;948;-31
2021/09/29 02:37:40;;;;;;;;;;;;;;;;;;1027144;28;909;-36
2021/09/29 02:38:11;;;;;;;;;;;;;;;;;;1027216;28;834;-37
2021/09/29 02:38:43;;;;;;;;;;;;;;;;;;1029751;28;3440;-35
2021/09/29 02:39:14;;;;;;;;;;;;;;;;;;1022372;29;1108;-36
2021/09/29 02:39:44;;;;;;;;;;;;;;;;;;1022442;29;1097;-36
2021/09/29 02:40:15;;;;;;;;;;;;;;;;;;1022320;29;1486;-34
2021/09/29 02:40:46;;;;;;;;;;;;;;;;;;1022733;28;854;-37
2021/09/29 02:41:16;;;;;;;;;;;;;;;;;;1027158;28;945;-31
2021/09/29 02:41:46;;;;;;;;;;;;;;;;;;1027183;28;933;-35
2021/09/29 02:42:17;;;;;;;;;;;;;;;;;;1026898;28;1275;-35
2021/09/29 02:42:48;;;;;;;;;;;;;;;;;;1030102;28;1298;-35
2021/09/29 02:43:19;;;;;;;;;;;;;;;;;;1030523;28;1092;-34
2021/09/29 02:43:49;;;;;;;;;;;;;;;;;;1029918;28;1485;-35
2021/09/29 02:44:20;;;;;;;;;;;;;;;;;;1030261;28;992;-32
2021/09/29 02:44:50;;;;;;;;;;;;;;;;;;1025817;28;950;-36
2021/09/29 02:45:21;;;;;;;;;;;;;;;;;;1021746;29;1091;-36
2021/09/29 02:45:51;;;;;;;;;;;;;;;;;;1022225;29;1099;-36
2021/09/29 02:46:21;;;;;;;;;;;;;;;;;;1022169;29;1566;-30
2021/09/29 02:46:52;;;;;;;;;;;;;;;;;;1022307;29;945;-31
2021/09/29 02:47:22;;;;;;;;;;;;;;;;;;1026573;28;917;-37
2021/09/29 02:47:52;;;;;;;;;;;;;;;;;;1026939;28;866;-32
2021/09/29 02:48:23;;;;;;;;;;;;;;;;;;1027141;28;868;-32
2021/09/29 02:48:53;;;;;;;;;;;;;;;;;;1026995;28;975;-34
2021/09/29 02:49:24;;;;;;;;;;;;;;;;;;1027140;28;1099;-33
2021/09/29 02:49:54;;;;;;;;;;;;;;;;;;1027095;28;1045;-33
2021/09/29 02:50:24;;;;;;;;;;;;;;;;;;1026553;28;1559;-36
2021/09/29 02:50:55;;;;;;;;;;;;;;;;;;1027026;28;1420;-37
2021/09/29 02:51:25;;;;;;;;;;;;;;;;;;1026942;28;1141;-35
2021/09/29 02:51:56;;;;;;;;;;;;;;;;;;1022352;29;1109;-34
2021/09/29 02:52:26;;;;;;;;;;;;;;;;;;1022046;29;1177;-35
2021/09/29 02:52:57;;;;;;;;;;;;;;;;;;1021797;29;1919;-34
2021/09/29 02:53:30;;;;;;;;;;;;;;;;;;1022252;28;1229;-36
2021/09/29 02:54:01;;;;;;;;;;;;;;;;;;1025141;28;1208;-37
2021/09/29 02:54:31;;;;;;;;;;;;;;;;;;1026087;28;1086;-37
2021/09/29 02:55:02;;;;;;;;;;;;;;;;;;1026475;28;1266;-33
2021/09/29 02:55:33;;;;;;;;;;;;;;;;;;1026244;28;956;-35
2021/09/29 02:56:03;;;;;;;;;;;;;;;;;;1026592;28;946;-34
2021/09/29 02:56:33;;;;;;;;;;;;;;;;;;1023015;28;1288;-33
2021/09/29 02:57:04;;;;;;;;;;;;;;;;;;1022348;28;1630;-37
2021/09/29 02:57:34;;;;;;;;;;;;;;;;;;1022903;28;1473;-34
2021/09/29 02:58:05;;;;;;;;;;;;;;;;;;1022587;29;1239;-34
2021/09/29 02:58:36;;;;;;;;;;;;;;;;;;1023093;28;1160;-30
2021/09/29 02:59:09;;;;;;;;;;;;;;;;;;1022972;29;1011;-35
2021/09/29 02:59:39;;;;;;;;;;;;;;;;;;1023089;29;1036;-37
2021/09/29 03:00:10;;;;;;;;;;;;;;;;;;1022995;29;855;-33
2021/09/29 03:00:41;;;;;;;;;;;;;;;;;;1026021;28;1559;-37
2021/09/29 03:01:11;;;;;;;;;;;;;;;;;;1026176;28;913;-36
2021/09/29 03:01:42;;;;;;;;;;;;;;;;;;1026377;28;954;-30
2021/09/29 03:02:13;;;;;;;;;;;;;;;;;;1018126;29;1034;-32
2021/09/29 03:02:43;;;;;;;;;;;;;;;;;;1018606;29;870;-37
2021/09/29 03:03:14;;;;;;;;;;;;;;;;;;1018353;29;1064;-36
2021/09/29 03:03:45;;;;;;;;;;;;;;;;;;1022466;28;886;-33
2021/09/29 03:04:15;;;;;;;;;;;;;;;;;;1026354;28;945;-34
2021/09/29 03:04:45;;;;;;;;;;;;;;;;;;1026234;28;960;-33
2021/09/29 03:05:16;;;;;;;;;;;;;;;;;;1026251;28;1075;-37
2021/09/29 03:05:47;;;;;;;;;;;;;;;;;;1022426;29;826;-36
2021/09/29 03:06:17;;;;;;;;;;;;;;;;;;1022687;28;1480;-33
2021/09/29 03:06:48;;;;;;;;;;;;;;;;;;1023029;28;1227;-36
2021/09/29 03:07:18;;;;;;;;;;;;;;;;;;1022693;29;1313;-36
2021/09/29 03:07:48;;;;;;;;;;;;;;;;;;1022862;29;1251;-32
2021/09/29 03:08:19;;;;;;;;;;;;;;;;;;1022961;29;1419;-35
2021/09/29 03:08:49;;;;;;;;;;;;;;;;;;1022866;28;1194;-32
2021/09/29 03:09:20;;;;;;;;;;;;;;;;;;1026345;28;1053;-33
2021/09/29 03:09:50;;;;;;;;;;;;;;;;;;1026246;28;1124;-35
2021/09/29 03:10:21;;;;;;;;;;;;;;;;;;1026219;28;939;-34
2021/09/29 03:10:51;;;;;;;;;;;;;;;;;;1026420;28;942;-34
2021/09/29 03:11:21;;;;;;;;;;;;;;;;;;1022973;29;970;-36
2021/09/29 03:11:52;;;;;;;;;;;;;;;;;;1022911;29;866;-35
2021/09/29 03:12:22;;;;;;;;;;;;;;;;;;1026411;28;888;-31
2021/09/29 03:12:53;;;;;;;;;;;;;;;;;;1028762;28;1990;-35
2021/09/29 03:13:23;;;;;;;;;;;;;;;;;;1030374;28;1036;-37
2021/09/29 03:13:54;;;;;;;;;;;;;;;;;;1029966;28;1306;-34
2021/09/29 03:14:24;;;;;;;;;;;;;;;;;;1026652;28;1056;-36
2021/09/29 03:14:55;;;;;;;;;;;;;;;;;;1026987;28;1043;-36
2021/09/29 03:15:25;;;;;;;;;;;;;;;;;;1025984;28;1051;-36
2021/09/29 03:15:56;;;;;;;;;;;;;;;;;;1026169;28;2560;-32
2021/09/29 03:16:26;;;;;;;;;;;;;;;;;;1022115;29;1385;-33
2021/09/29 03:16:57;;;;;;;;;;;;;;;;;;1022577;29;819;-34
2021/09/29 03:17:27;;;;;;;;;;;;;;;;;;1022034;29;1288;-36
2021/09/29 03:17:58;;;;;;;;;;;;;;;;;;1022345;29;1078;-31
2021/09/29 03:18:28;;;;;;;;;;;;;;;;;;1021999;29;1158;-33
2021/09/29 03:18:59;;;;;;;;;;;;;;;;;;1022503;28;1386;-34
2021/09/29 03:19:30;;;;;;;;;;;;;;;;;;1026816;28;922;-36
2021/09/29 03:20:01;;;;;;;;;;;;;;;;;;1027149;28;940;-37
2021/09/29 03:20:31;;;;;;;;;;;;;;;;;;1026833;28;882;-34
2021/09/29 03:21:02;;;;;;;;;;;;;;;;;;1027046;28;1005;-35
2021/09/29 03:21:32;;;;;;;;;;;;;;;;;;1026784;28;1504;-32
2021/09/29 03:22:03;;;;;;;;;;;;;;;;;;1026668;28;1488;-34
2021/09/29 03:22:33;;;;;;;;;;;;;;;;;;1026841;28;976;-36
2021/09/29 03:23:04;;;;;;;;;;;;;;;;;;1034220;28;1222;-34
2021/09/29 03:23:35;;;;;;;;;;;;;;;;;;1034315;28;976;-36
2021/09/29 03:24:05;;;;;;;;;;;;;;;;;;1034069;28;1462;-34
2021/09/29 03:24:35;;;;;;;;;;;;;;;;;;1031504;28;1489;-37
2021/09/29 03:25:06;;;;;;;;;;;;;;;;;;1027147;28;919;-35
2021/09/29 03:25:37;;;;;;;;;;;;;;;;;;1026840;28;932;-36
2021/09/29 03:26:07;;;;;;;;;;;;;;;;;;1026902;28;1376;-35
2021/09/29 03:26:37;;;;;;;;;;;;;;;;;;1027025;28;949;-35
2021/09/29 03:27:08;;;;;;;;;;;;;;;;;;1026831;28;952;-36
2021/09/29 03:27:39;;;;;;;;;;;;;;;;;;1026976;28;898;-34
2021/09/29 03:28:09;;;;;;;;;;;;;;;;;;1026934;28;1013;-33
2021/09/29 03:28:40;;;;;;;;;;;;;;;;;;1026592;28;1395;-34
2021/09/29 03:29:10;;;;;;;;;;;;;;;;;;1026851;28;965;-36
2021/09/29 03:29:40;;;;;;;;;;;;;;;;;;1026190;28;1295;-35
2021/09/29 03:30:11;;;;;;;;;;;;;;;;;;1026509;28;1116;-34
2021/09/29 03:30:41;;;;;;;;;;;;;;;;;;1026435;28;1340;-34
2021/09/29 03:31:12;;;;;;;;;;;;;;;;;;1026495;28;1279;-34
2021/09/29 03:31:43;;;;;;;;;;;;;;;;;;1026896;28;1378;-35
2021/09/29 03:32:13;;;;;;;;;;;;;;;;;;1026995;28;1039;-35
2021/09/29 03:32:44;;;;;;;;;;;;;;;;;;1026550;28;1922;-31
2021/09/29 03:33:15;;;;;;;;;;;;;;;;;;1027148;28;831;-34
2021/09/29 03:33:45;;;;;;;;;;;;;;;;;;1017915;29;970;-36
2021/09/29 03:34:16;;;;;;;;;;;;;;;;;;1018217;29;1383;-37
2021/09/29 03:34:46;;;;;;;;;;;;;;;;;;1017769;29;1075;-37
2021/09/29 03:35:17;;;;;;;;;;;;;;;;;;1018333;28;1004;-35
2021/09/29 03:35:47;;;;;;;;;;;;;;;;;;1026118;28;1095;-33
2021/09/29 03:36:18;;;;;;;;;;;;;;;;;;1026202;28;3599;-34
2021/09/29 03:36:48;;;;;;;;;;;;;;;;;;1017979;29;1042;-36
2021/09/29 03:37:19;;;;;;;;;;;;;;;;;;1018267;29;1035;-35
2021/09/29 03:37:50;;;;;;;;;;;;;;;;;;1017813;29;1500;-37
2021/09/29 03:38:20;;;;;;;;;;;;;;;;;;1018315;28;2425;-34
2021/09/29 03:38:50;;;;;;;;;;;;;;;;;;1029973;28;3842;-35
2021/09/29 03:39:21;;;;;;;;;;;;;;;;;;1022777;29;1048;-32
2021/09/29 03:39:52;;;;;;;;;;;;;;;;;;1022835;28;1453;-36